IBE4356 LEMD-EGLL
Flight info
| Callsign | IBE4356 |
|---|---|
| Flight time | N/A |
| Altitude | 34000 |
| Route | SIE N858 DGO N867 NENEM DCT DIDIG UP87 ROXOG |
| Aircraft | A346/H-SDE2E3FGHIJ3J4J5M1RWXY/LB1D1 |
Departure
| Time | 2026-05-06 15:01 |
|---|---|
| Airport | Adolfo Suárez Madrid–Barajas Airport (LEMD) |
Arrival
| Time | N/A |
|---|---|
| Airport | London Heathrow Airport (EGLL) |
| Time | Latitude | Longitude | Altitude | Speed | Heading |
|---|---|---|---|---|---|
| 2026-05-06 14:05 | 40.49035 | -3.56339 | 1972 ft | 0 kts | 271° |
| 2026-05-06 14:50 | 40.49035 | -3.56340 | 1973 ft | 0 kts | 271° |
| 2026-05-06 14:50 | 40.49035 | -3.56350 | 1973 ft | 2 kts | 271° |
| 2026-05-06 14:51 | 40.49035 | -3.56382 | 1990 ft | 7 kts | 266° |
| 2026-05-06 14:51 | 40.48966 | -3.56437 | 1975 ft | 20 kts | 190° |
| 2026-05-06 14:51 | 40.48831 | -3.56441 | 1975 ft | 15 kts | 181° |
| 2026-05-06 14:51 | 40.48770 | -3.56541 | 1981 ft | 22 kts | 262° |
| 2026-05-06 14:52 | 40.48766 | -3.56769 | 1987 ft | 23 kts | 269° |
| 2026-05-06 14:52 | 40.48764 | -3.57012 | 1989 ft | 23 kts | 271° |
| 2026-05-06 14:52 | 40.48777 | -3.57194 | 1994 ft | 9 kts | 313° |
| 2026-05-06 14:52 | 40.48852 | -3.57225 | 1993 ft | 17 kts | 355° |
| 2026-05-06 14:53 | 40.48909 | -3.57229 | 1994 ft | 0 kts | 359° |
| 2026-05-06 14:53 | 40.48919 | -3.57229 | 1993 ft | 3 kts | 359° |
| 2026-05-06 14:53 | 40.48924 | -3.57229 | 1992 ft | 0 kts | 359° |
| 2026-05-06 14:54 | 40.48926 | -3.57229 | 1993 ft | 1 kts | 359° |
| 2026-05-06 14:54 | 40.48948 | -3.57229 | 1991 ft | 5 kts | 360° |
| 2026-05-06 14:54 | 40.48987 | -3.57230 | 1991 ft | 6 kts | 356° |
| 2026-05-06 14:54 | 40.49016 | -3.57245 | 1995 ft | 0 kts | 323° |
| 2026-05-06 14:55 | 40.49018 | -3.57247 | 1995 ft | 0 kts | 320° |
| 2026-05-06 14:55 | 40.49019 | -3.57249 | 1995 ft | 1 kts | 319° |
| 2026-05-06 14:56 | 40.49028 | -3.57259 | 1995 ft | 3 kts | 316° |
| 2026-05-06 14:56 | 40.49047 | -3.57284 | 1994 ft | 5 kts | 316° |
| 2026-05-06 14:56 | 40.49069 | -3.57313 | 1996 ft | 0 kts | 315° |
| 2026-05-06 14:56 | 40.49073 | -3.57317 | 1996 ft | 2 kts | 315° |
| 2026-05-06 14:57 | 40.49079 | -3.57326 | 1995 ft | 0 kts | 315° |
| 2026-05-06 14:58 | 40.49085 | -3.57334 | 1996 ft | 2 kts | 315° |
| 2026-05-06 14:58 | 40.49102 | -3.57356 | 1997 ft | 5 kts | 315° |
| 2026-05-06 14:58 | 40.49130 | -3.57393 | 1995 ft | 7 kts | 315° |
| 2026-05-06 14:59 | 40.49173 | -3.57434 | 1996 ft | 9 kts | 338° |
| 2026-05-06 14:59 | 40.49246 | -3.57451 | 1994 ft | 12 kts | 358° |
| 2026-05-06 14:59 | 40.49258 | -3.57451 | 1993 ft | 0 kts | 358° |
| 2026-05-06 15:00 | 40.49261 | -3.57452 | 1991 ft | 3 kts | 358° |
| 2026-05-06 15:00 | 40.49321 | -3.57454 | 1991 ft | 21 kts | 358° |
| 2026-05-06 15:01 | 40.49728 | -3.57456 | 1995 ft | 94 kts | 360° |
| 2026-05-06 15:01 | 40.50605 | -3.57463 | 2002 ft | 155 kts | 359° |
| 2026-05-06 15:01 | 40.51855 | -3.57473 | 2058 ft | 200 kts | 358° |
| 2026-05-06 15:01 | 40.53270 | -3.57487 | 2695 ft | 204 kts | 359° |
| 2026-05-06 15:02 | 40.54650 | -3.57505 | 3593 ft | 199 kts | 0° |
| 2026-05-06 15:02 | 40.56038 | -3.57323 | 4472 ft | 198 kts | 12° |
| 2026-05-06 15:02 | 40.57372 | -3.56844 | 5221 ft | 200 kts | 17° |
| 2026-05-06 15:02 | 40.58715 | -3.56289 | 5814 ft | 212 kts | 18° |
| 2026-05-06 15:03 | 40.60174 | -3.55679 | 6336 ft | 229 kts | 17° |
| 2026-05-06 15:03 | 40.61750 | -3.55028 | 6816 ft | 245 kts | 17° |
| 2026-05-06 15:03 | 40.63423 | -3.54426 | 7536 ft | 251 kts | 11° |
| 2026-05-06 15:03 | 40.65142 | -3.54105 | 8527 ft | 249 kts | 5° |
| 2026-05-06 15:04 | 40.66875 | -3.53934 | 9457 ft | 250 kts | 3° |
| 2026-05-06 15:04 | 40.68624 | -3.53789 | 10268 ft | 253 kts | 3° |
| 2026-05-06 15:04 | 40.70398 | -3.53642 | 11021 ft | 258 kts | 3° |
| 2026-05-06 15:04 | 40.72204 | -3.53487 | 11752 ft | 263 kts | 4° |
| 2026-05-06 15:05 | 40.74045 | -3.53328 | 12491 ft | 268 kts | 2° |
| 2026-05-06 15:05 | 40.75918 | -3.53311 | 13260 ft | 272 kts | 357° |
| 2026-05-06 15:05 | 40.77835 | -3.53546 | 13852 ft | 284 kts | 352° |
| 2026-05-06 15:05 | 40.79847 | -3.53908 | 14232 ft | 301 kts | 351° |
| 2026-05-06 15:06 | 40.81980 | -3.54313 | 14601 ft | 318 kts | 351° |
| 2026-05-06 15:06 | 40.84233 | -3.54739 | 14954 ft | 336 kts | 351° |
| 2026-05-06 15:06 | 40.86610 | -3.55182 | 15312 ft | 354 kts | 351° |
| 2026-05-06 15:06 | 40.89106 | -3.55644 | 15641 ft | 371 kts | 351° |
| 2026-05-06 15:07 | 40.91726 | -3.56129 | 15961 ft | 389 kts | 351° |
| 2026-05-06 15:07 | 40.94459 | -3.56633 | 16305 ft | 404 kts | 351° |
| 2026-05-06 15:07 | 40.97264 | -3.57148 | 16966 ft | 410 kts | 351° |
| 2026-05-06 15:07 | 41.00092 | -3.57669 | 17765 ft | 412 kts | 351° |
| 2026-05-06 15:08 | 41.02944 | -3.58177 | 18495 ft | 416 kts | 352° |
| 2026-05-06 15:08 | 41.05843 | -3.58544 | 19124 ft | 420 kts | 353° |
| 2026-05-06 15:08 | 41.08760 | -3.58858 | 19768 ft | 424 kts | 353° |
| 2026-05-06 15:08 | 41.11696 | -3.59173 | 20450 ft | 426 kts | 353° |
| 2026-05-06 15:09 | 41.14626 | -3.59493 | 21106 ft | 430 kts | 353° |
| 2026-05-06 15:09 | 41.17560 | -3.59822 | 21713 ft | 434 kts | 353° |
| 2026-05-06 15:09 | 41.20540 | -3.60163 | 22327 ft | 437 kts | 352° |
| 2026-05-06 15:09 | 41.23522 | -3.60509 | 22937 ft | 441 kts | 352° |
| 2026-05-06 15:10 | 41.26542 | -3.60861 | 23535 ft | 444 kts | 352° |
| 2026-05-06 15:10 | 41.28588 | -3.61101 | 23865 ft | 447 kts | 352° |
| 2026-05-06 15:10 | 41.31636 | -3.61465 | 24362 ft | 451 kts | 352° |
| 2026-05-06 15:10 | 41.34715 | -3.61831 | 24856 ft | 454 kts | 352° |
| 2026-05-06 15:11 | 41.37837 | -3.62198 | 25361 ft | 457 kts | 352° |
| 2026-05-06 15:11 | 41.40980 | -3.62567 | 25867 ft | 460 kts | 352° |
| 2026-05-06 15:11 | 41.44141 | -3.62939 | 26348 ft | 463 kts | 352° |
| 2026-05-06 15:11 | 41.47321 | -3.63315 | 26839 ft | 467 kts | 352° |
| 2026-05-06 15:12 | 41.50535 | -3.63695 | 27334 ft | 470 kts | 352° |
| 2026-05-06 15:12 | 41.53771 | -3.64084 | 27814 ft | 473 kts | 352° |
| 2026-05-06 15:12 | 41.57044 | -3.64473 | 28317 ft | 475 kts | 352° |
| 2026-05-06 15:12 | 41.60327 | -3.64859 | 28968 ft | 474 kts | 352° |
| 2026-05-06 15:13 | 41.63573 | -3.65241 | 29737 ft | 471 kts | 352° |
| 2026-05-06 15:13 | 41.66785 | -3.65620 | 30415 ft | 468 kts | 351° |
| 2026-05-06 15:13 | 41.69993 | -3.66002 | 30998 ft | 466 kts | 351° |
| 2026-05-06 15:13 | 41.73212 | -3.66388 | 31563 ft | 465 kts | 351° |
| 2026-05-06 15:14 | 41.76412 | -3.66772 | 32121 ft | 464 kts | 351° |
| 2026-05-06 15:14 | 41.79617 | -3.67156 | 32649 ft | 464 kts | 351° |
| 2026-05-06 15:14 | 41.82814 | -3.67539 | 33096 ft | 465 kts | 351° |
| 2026-05-06 15:14 | 41.86043 | -3.67928 | 33490 ft | 468 kts | 351° |
| 2026-05-06 15:15 | 41.89291 | -3.68318 | 33880 ft | 470 kts | 351° |
| 2026-05-06 15:15 | 41.95827 | -3.69105 | 33981 ft | 472 kts | 351° |
| 2026-05-06 15:16 | 42.02365 | -3.69891 | 33973 ft | 472 kts | 351° |
| 2026-05-06 15:16 | 42.08902 | -3.70679 | 33971 ft | 472 kts | 351° |
| 2026-05-06 15:17 | 42.15440 | -3.71469 | 33978 ft | 471 kts | 351° |
| 2026-05-06 15:17 | 42.21960 | -3.72258 | 33998 ft | 471 kts | 351° |
| 2026-05-06 15:18 | 42.28483 | -3.73049 | 34012 ft | 471 kts | 351° |
| 2026-05-06 15:18 | 42.35002 | -3.73842 | 34025 ft | 470 kts | 351° |
| 2026-05-06 15:19 | 42.41517 | -3.74637 | 34006 ft | 469 kts | 351° |
| 2026-05-06 15:19 | 42.48022 | -3.75431 | 33996 ft | 469 kts | 351° |
| 2026-05-06 15:20 | 42.54524 | -3.76226 | 33993 ft | 469 kts | 351° |
| 2026-05-06 15:20 | 42.61016 | -3.77025 | 34004 ft | 468 kts | 352° |
| 2026-05-06 15:21 | 42.67490 | -3.77819 | 34008 ft | 468 kts | 352° |
| 2026-05-06 15:21 | 42.73919 | -3.78610 | 34015 ft | 468 kts | 351° |
| 2026-05-06 15:22 | 42.80443 | -3.79414 | 34021 ft | 468 kts | 352° |
| 2026-05-06 15:22 | 42.86925 | -3.80216 | 34023 ft | 468 kts | 352° |
| 2026-05-06 15:23 | 42.93367 | -3.81014 | 34025 ft | 468 kts | 352° |
| 2026-05-06 15:23 | 42.99848 | -3.81821 | 34028 ft | 467 kts | 352° |
| 2026-05-06 15:24 | 43.06369 | -3.82634 | 34035 ft | 468 kts | 352° |
| 2026-05-06 15:24 | 43.12862 | -3.83443 | 34034 ft | 468 kts | 352° |
| 2026-05-06 15:25 | 43.19311 | -3.84248 | 34043 ft | 467 kts | 352° |
| 2026-05-06 15:25 | 43.25823 | -3.85063 | 34036 ft | 467 kts | 352° |
| 2026-05-06 15:26 | 43.32288 | -3.85873 | 34029 ft | 466 kts | 352° |
| 2026-05-06 15:26 | 43.38712 | -3.86681 | 34037 ft | 466 kts | 352° |
| 2026-05-06 15:27 | 43.45203 | -3.87500 | 34037 ft | 465 kts | 352° |
| 2026-05-06 15:27 | 43.51652 | -3.88314 | 34033 ft | 465 kts | 352° |
| 2026-05-06 15:28 | 43.58101 | -3.89131 | 34044 ft | 465 kts | 352° |
| 2026-05-06 15:28 | 43.64466 | -3.89939 | 34037 ft | 463 kts | 352° |
| 2026-05-06 15:29 | 43.70885 | -3.90754 | 34037 ft | 463 kts | 352° |
| 2026-05-06 15:29 | 43.77307 | -3.91573 | 34039 ft | 463 kts | 352° |
| 2026-05-06 15:30 | 43.83704 | -3.92391 | 34031 ft | 463 kts | 352° |
| 2026-05-06 15:30 | 43.90115 | -3.93211 | 34032 ft | 463 kts | 352° |
| 2026-05-06 15:31 | 43.96519 | -3.94032 | 34034 ft | 463 kts | 352° |
| 2026-05-06 15:31 | 44.02920 | -3.94857 | 34022 ft | 462 kts | 352° |
| 2026-05-06 15:32 | 44.12530 | -3.96095 | 34021 ft | 462 kts | 352° |
| 2026-05-06 15:32 | 44.18930 | -3.96927 | 34027 ft | 461 kts | 353° |
| 2026-05-06 15:33 | 44.25314 | -3.97750 | 34024 ft | 461 kts | 353° |
| 2026-05-06 15:33 | 44.31733 | -3.98061 | 34024 ft | 463 kts | 359° |
| 2026-05-06 15:34 | 44.38168 | -3.97454 | 34023 ft | 464 kts | 5° |
| 2026-05-06 15:34 | 44.44554 | -3.96097 | 34024 ft | 464 kts | 7° |
| 2026-05-06 15:35 | 44.51012 | -3.94593 | 34021 ft | 464 kts | 7° |
| 2026-05-06 15:35 | 44.57351 | -3.93121 | 34024 ft | 464 kts | 7° |
| 2026-05-06 15:36 | 44.63701 | -3.91650 | 34021 ft | 463 kts | 7° |
| 2026-05-06 15:36 | 44.66437 | -3.91016 | 34021 ft | 463 kts | 7° |
| 2026-05-06 15:37 | 44.72792 | -3.89543 | 34025 ft | 463 kts | 7° |
| 2026-05-06 15:37 | 44.79151 | -3.88066 | 34024 ft | 463 kts | 7° |
| 2026-05-06 15:38 | 44.85505 | -3.86587 | 34024 ft | 463 kts | 7° |
| 2026-05-06 15:38 | 44.91859 | -3.85106 | 34024 ft | 463 kts | 7° |
| 2026-05-06 15:39 | 44.98213 | -3.83623 | 34026 ft | 462 kts | 8° |
| 2026-05-06 15:39 | 45.04562 | -3.82134 | 34020 ft | 463 kts | 7° |
| 2026-05-06 15:40 | 45.10919 | -3.80642 | 34020 ft | 463 kts | 7° |
| 2026-05-06 15:40 | 45.17277 | -3.79148 | 34021 ft | 462 kts | 8° |
| 2026-05-06 15:41 | 45.23574 | -3.77663 | 34019 ft | 462 kts | 8° |
| 2026-05-06 15:41 | 45.29957 | -3.76154 | 34023 ft | 462 kts | 8° |
| 2026-05-06 15:42 | 45.36248 | -3.74665 | 34022 ft | 461 kts | 8° |
| 2026-05-06 15:42 | 45.42578 | -3.73162 | 34018 ft | 461 kts | 8° |
| 2026-05-06 15:43 | 45.48909 | -3.71655 | 34011 ft | 461 kts | 8° |
| 2026-05-06 15:43 | 45.55232 | -3.70147 | 34014 ft | 461 kts | 8° |
| 2026-05-06 15:44 | 45.61548 | -3.68637 | 34017 ft | 461 kts | 8° |
| 2026-05-06 15:44 | 45.67873 | -3.67122 | 34012 ft | 461 kts | 8° |
| 2026-05-06 15:45 | 45.74196 | -3.65604 | 34017 ft | 461 kts | 8° |
| 2026-05-06 15:45 | 45.80519 | -3.64082 | 34012 ft | 461 kts | 8° |
| 2026-05-06 15:46 | 45.86845 | -3.62556 | 34011 ft | 461 kts | 8° |
| 2026-05-06 15:46 | 45.93171 | -3.61027 | 34010 ft | 462 kts | 8° |
| 2026-05-06 15:47 | 45.99513 | -3.59490 | 34007 ft | 462 kts | 8° |
| 2026-05-06 15:47 | 46.05846 | -3.57952 | 34004 ft | 462 kts | 8° |
| 2026-05-06 15:48 | 46.12191 | -3.56408 | 34009 ft | 460 kts | 8° |
| 2026-05-06 15:48 | 46.18493 | -3.54871 | 34007 ft | 459 kts | 8° |
| 2026-05-06 15:49 | 46.24799 | -3.53327 | 34006 ft | 459 kts | 8° |
| 2026-05-06 15:49 | 46.31098 | -3.51783 | 34005 ft | 459 kts | 8° |
| 2026-05-06 15:50 | 46.37369 | -3.50242 | 34002 ft | 461 kts | 8° |
| 2026-05-06 15:50 | 46.43689 | -3.48685 | 34002 ft | 461 kts | 8° |
| 2026-05-06 15:51 | 46.50017 | -3.47122 | 34001 ft | 461 kts | 8° |
| 2026-05-06 15:51 | 46.56352 | -3.45554 | 34002 ft | 463 kts | 8° |
| 2026-05-06 15:52 | 46.62698 | -3.43980 | 34004 ft | 463 kts | 8° |
| 2026-05-06 15:52 | 46.69049 | -3.42401 | 34000 ft | 463 kts | 8° |
| 2026-05-06 15:53 | 46.75397 | -3.40818 | 33995 ft | 463 kts | 8° |
| 2026-05-06 15:53 | 46.81753 | -3.39231 | 33996 ft | 463 kts | 8° |
| 2026-05-06 15:54 | 46.88111 | -3.37638 | 33996 ft | 463 kts | 8° |
| 2026-05-06 15:54 | 46.94466 | -3.36043 | 33996 ft | 465 kts | 8° |
| 2026-05-06 15:55 | 46.99819 | -3.34696 | 34001 ft | 466 kts | 8° |
| 2026-05-06 15:55 | 47.06169 | -3.33095 | 33997 ft | 466 kts | 8° |
| 2026-05-06 15:56 | 47.12562 | -3.31479 | 33990 ft | 466 kts | 8° |
| 2026-05-06 15:56 | 47.18958 | -3.29860 | 34000 ft | 466 kts | 8° |
| 2026-05-06 15:57 | 47.25320 | -3.28244 | 33991 ft | 463 kts | 8° |
| 2026-05-06 15:57 | 47.31672 | -3.26626 | 33985 ft | 463 kts | 8° |
| 2026-05-06 15:58 | 47.38025 | -3.25005 | 33989 ft | 464 kts | 8° |
| 2026-05-06 15:58 | 47.44397 | -3.23375 | 33967 ft | 465 kts | 8° |
| 2026-05-06 15:59 | 47.50796 | -3.21735 | 33972 ft | 465 kts | 8° |
| 2026-05-06 15:59 | 47.57173 | -3.20097 | 33980 ft | 466 kts | 8° |
| 2026-05-06 16:00 | 47.63569 | -3.18449 | 33977 ft | 466 kts | 8° |
| 2026-05-06 16:00 | 47.69934 | -3.16573 | 33976 ft | 467 kts | 13° |
| 2026-05-06 16:01 | 47.76164 | -3.13767 | 33984 ft | 468 kts | 19° |
| 2026-05-06 16:01 | 47.82178 | -3.09991 | 33964 ft | 470 kts | 24° |
| 2026-05-06 16:02 | 47.88063 | -3.05702 | 33969 ft | 471 kts | 25° |
| 2026-05-06 16:02 | 47.93936 | -3.01371 | 33977 ft | 470 kts | 25° |
| 2026-05-06 16:03 | 47.99818 | -2.97037 | 33972 ft | 471 kts | 25° |
| 2026-05-06 16:03 | 48.05667 | -2.92724 | 33969 ft | 469 kts | 25° |
| 2026-05-06 16:04 | 48.11525 | -2.88397 | 33973 ft | 470 kts | 25° |